Time;durP1;ratioP1;P1;durP2;ratioP2;P2;SDS_P1;SDS_P2;PMS_P1;PMS_P2;Temp;Humidity;BMP_temperature;BMP_pressure;BME280_temperature;BME280_humidity;BME280_pressure;Samples;Min_cycle;Max_cycle;Signal;HPM_P1;HPM_P2
2024/01/05 00:01:05;;;;;;;2.38;0.90;;;;;;;5.22;53.64;100613.19;5042743;28;20116;-40
2024/01/05 00:03:31;;;;;;;2.75;1.10;;;;;;;5.25;54.08;100610.44;5043124;28;20058;-39
2024/01/05 00:05:56;;;;;;;1.55;1.25;;;;;;;5.28;53.40;100620.78;5039590;28;20029;-39
2024/01/05 00:08:22;;;;;;;3.72;1.40;;;;;;;5.11;53.47;100618.81;5036784;28;20032;-39
2024/01/05 00:10:47;;;;;;;4.68;0.90;;;;;;;5.09;53.01;100616.22;5042822;28;20044;-40
2024/01/05 00:13:12;;;;;;;1.77;0.77;;;;;;;5.11;53.57;100617.03;5042689;28;20029;-39
2024/01/05 00:15:38;;;;;;;2.03;0.90;;;;;;;5.02;52.57;100614.78;5044803;28;20025;-39
2024/01/05 00:18:05;;;;;;;3.72;1.05;;;;;;;5.08;51.90;100629.34;5042309;28;20035;-39
2024/01/05 00:20:30;;;;;;;3.10;1.00;;;;;;;5.07;53.45;100617.22;5042884;28;20036;-40
2024/01/05 00:22:56;;;;;;;1.17;0.75;;;;;;;5.16;52.59;100620.34;5025690;28;20028;-40
2024/01/05 00:25:21;;;;;;;1.65;0.73;;;;;;;5.13;52.90;100614.38;5042001;28;20036;-40
2024/01/05 00:27:50;;;;;;;1.08;0.85;;;;;;;5.26;51.81;100622.59;5044007;28;20025;-40
2024/01/05 00:30:15;;;;;;;1.30;0.60;;;;;;;5.30;52.20;100616.34;5040304;28;20033;-40
2024/01/05 00:32:40;;;;;;;1.88;0.95;;;;;;;5.41;52.23;100622.00;5040214;28;20032;-39
2024/01/05 00:35:07;;;;;;;2.47;0.70;;;;;;;5.45;52.23;100623.59;5042669;28;20029;-39
2024/01/05 00:37:32;;;;;;;4.07;1.10;;;;;;;5.40;52.04;100624.69;5043539;28;20845;-39
2024/01/05 00:39:57;;;;;;;2.85;1.08;;;;;;;5.42;51.02;100623.72;5030562;28;21969;-40
2024/01/05 00:42:23;;;;;;;5.07;1.00;;;;;;;5.39;51.30;100617.75;5041175;28;20094;-39
2024/01/05 00:44:48;;;;;;;2.60;1.40;;;;;;;5.38;51.26;100613.44;5045669;28;20041;-39
2024/01/05 00:47:13;;;;;;;1.38;0.80;;;;;;;5.29;51.49;100614.66;5043750;28;20483;-39
2024/01/05 00:49:39;;;;;;;1.60;1.10;;;;;;;5.25;51.79;100613.06;5043059;28;20197;-39
2024/01/05 00:52:04;;;;;;;1.20;0.60;;;;;;;5.26;51.60;100601.72;5039665;28;20040;-40
2024/01/05 00:54:30;;;;;;;5.80;1.13;;;;;;;5.23;51.68;100605.31;5045301;28;20636;-40
2024/01/05 00:56:55;;;;;;;1.40;0.88;;;;;;;5.38;51.65;100622.13;5042275;28;20740;-40
2024/01/05 00:59:21;;;;;;;2.08;1.10;;;;;;;5.44;52.24;100614.06;5041871;28;20029;-40
2024/01/05 01:01:47;;;;;;;1.98;1.30;;;;;;;5.34;52.20;100618.78;5039414;28;20079;-40
2024/01/05 01:04:14;;;;;;;1.90;0.75;;;;;;;5.30;52.75;100619.78;5042217;28;20033;-39
2024/01/05 01:06:39;;;;;;;2.03;1.10;;;;;;;5.33;52.37;100613.63;5043171;28;20029;-39
2024/01/05 01:09:04;;;;;;;1.38;0.70;;;;;;;5.28;52.00;100623.38;5042204;28;20041;-40
2024/01/05 01:11:30;;;;;;;5.10;1.48;;;;;;;5.23;52.03;100630.53;5043153;28;20037;-39
2024/01/05 01:13:56;;;;;;;1.60;0.82;;;;;;;5.34;52.70;100628.38;5028880;28;20056;-39
2024/01/05 01:16:21;;;;;;;1.52;0.80;;;;;;;5.33;52.27;100630.13;5026016;28;20037;-39
2024/01/05 01:18:47;;;;;;;1.45;0.90;;;;;;;5.21;51.52;100634.97;5021862;28;20042;-39
2024/01/05 01:21:12;;;;;;;1.52;0.60;;;;;;;5.30;51.21;100635.44;5040805;28;20112;-39
2024/01/05 01:23:37;;;;;;;1.05;0.68;;;;;;;5.27;50.92;100637.34;5035022;28;20037;-39
2024/01/05 01:26:03;;;;;;;4.25;0.82;;;;;;;5.36;51.25;100633.53;5040748;28;20116;-39
2024/01/05 01:28:29;;;;;;;1.25;0.77;;;;;;;5.46;49.94;100638.34;5042453;28;20033;-39
2024/01/05 01:30:56;;;;;;;2.08;0.82;;;;;;;5.47;50.25;100640.06;5041360;28;20029;-39
2024/01/05 01:33:21;;;;;;;1.30;0.80;;;;;;;5.40;50.77;100641.19;5041881;28;20110;-39
2024/01/05 01:35:46;;;;;;;1.65;0.63;;;;;;;5.40;50.91;100643.78;5039643;28;20061;-40
2024/01/05 01:38:12;;;;;;;1.40;0.90;;;;;;;5.37;49.99;100636.06;5037851;28;20033;-39
2024/01/05 01:40:37;;;;;;;2.00;1.02;;;;;;;5.22;50.07;100645.34;5037996;28;20029;-39
2024/01/05 01:43:03;;;;;;;2.05;0.57;;;;;;;5.14;49.10;100636.97;5039368;28;20066;-39
2024/01/05 01:45:29;;;;;;;1.02;0.70;;;;;;;5.08;49.54;100640.63;5038043;28;20032;-39
2024/01/05 01:47:55;;;;;;;2.28;0.77;;;;;;;5.14;49.34;100636.97;5040199;28;20033;-40
2024/01/05 01:50:24;;;;;;;0.80;0.50;;;;;;;5.30;49.38;100634.63;5025801;28;20036;-39
2024/01/05 01:52:50;;;;;;;2.65;0.88;;;;;;;5.32;49.23;100635.41;5037392;28;20056;-39
2024/01/05 01:55:17;;;;;;;0.88;0.55;;;;;;;5.33;48.61;100634.50;5042529;28;20056;-40
2024/01/05 01:57:43;;;;;;;3.83;0.77;;;;;;;5.37;48.18;100636.06;5045981;28;20056;-40
2024/01/05 02:00:09;;;;;;;0.45;0.40;;;;;;;5.36;48.36;100637.00;5038473;28;20167;-39
2024/01/05 02:02:36;;;;;;;4.50;1.90;;;;;;;5.45;48.43;100628.81;5047985;28;20107;-40
2024/01/05 02:05:02;;;;;;;16.60;5.85;;;;;;;5.40;48.92;100625.53;5050656;28;20587;-39
2024/01/05 02:07:28;;;;;;;11.63;4.72;;;;;;;5.49;48.85;100625.19;5042214;28;20039;-39
2024/01/05 02:09:54;;;;;;;4.43;1.90;;;;;;;5.61;49.03;100623.84;5044733;28;20044;-39
2024/01/05 02:12:19;;;;;;;13.48;4.22;;;;;;;5.68;49.15;100621.84;5040619;28;20033;-39
2024/01/05 02:14:44;;;;;;;12.00;5.38;;;;;;;5.75;49.55;100623.31;5045536;28;20067;-39
2024/01/05 02:17:30;;;;;;;18.08;6.75;;;;;;;5.76;48.77;100627.63;5045438;28;20506;-39
2024/01/05 02:19:56;;;;;;;4.15;1.88;;;;;;;5.72;48.95;100636.47;5042535;28;20094;-39
2024/01/05 02:22:22;;;;;;;5.85;1.83;;;;;;;5.72;48.92;100626.03;5043192;28;20025;-39
2024/01/05 02:24:49;;;;;;;3.50;1.50;;;;;;;5.79;49.01;100630.13;5049802;28;20128;-40
2024/01/05 02:27:15;;;;;;;2.92;1.00;;;;;;;5.78;49.20;100620.59;5046754;28;20123;-40
2024/01/05 02:29:40;;;;;;;1.33;0.80;;;;;;;5.89;49.73;100624.53;5045780;28;20052;-40
2024/01/05 02:32:06;;;;;;;1.88;1.05;;;;;;;5.83;49.60;100622.16;5042399;28;20036;-39
2024/01/05 02:34:31;;;;;;;3.75;0.80;;;;;;;5.84;48.43;100629.06;5042580;28;20044;-40
2024/01/05 02:36:56;;;;;;;0.68;0.55;;;;;;;5.76;47.87;100617.19;5044340;28;20171;-39
2024/01/05 02:39:22;;;;;;;1.23;0.75;;;;;;;5.60;48.13;100621.31;5042052;28;20106;-39
2024/01/05 02:41:47;;;;;;;1.98;1.02;;;;;;;5.66;48.21;100610.63;5043099;28;20073;-40
2024/01/05 02:44:12;;;;;;;1.95;0.80;;;;;;;5.63;48.69;100595.09;5044749;28;20025;-40
2024/01/05 02:46:38;;;;;;;1.45;0.65;;;;;;;5.73;49.18;100595.56;5045459;28;20100;-39
2024/01/05 02:49:03;;;;;;;2.30;1.00;;;;;;;5.84;49.07;100608.19;5040767;28;20029;-39
2024/01/05 02:51:29;;;;;;;2.25;0.63;;;;;;;5.93;49.21;100605.22;5044665;28;20069;-40
2024/01/05 02:53:55;;;;;;;2.15;0.77;;;;;;;6.01;49.71;100600.53;5044714;28;20110;-40
2024/01/05 02:56:23;;;;;;;1.98;0.95;;;;;;;6.08;49.57;100604.63;5040009;28;20041;-40
2024/01/05 02:58:50;;;;;;;2.97;0.80;;;;;;;6.10;49.73;100600.19;5048655;28;20239;-40
2024/01/05 03:01:16;;;;;;;1.92;1.10;;;;;;;6.15;49.59;100604.34;5040380;28;20064;-39
2024/01/05 03:03:43;;;;;;;1.50;0.52;;;;;;;6.14;50.18;100597.41;5044069;28;20545;-40
2024/01/05 03:06:08;;;;;;;1.50;1.05;;;;;;;6.20;50.07;100594.56;5042369;28;20551;-39
2024/01/05 03:08:34;;;;;;;1.23;0.70;;;;;;;6.20;50.30;100594.56;5043740;28;20022;-39
2024/01/05 03:10:59;;;;;;;2.53;0.60;;;;;;;6.21;50.05;100585.81;5048148;28;20032;-39
2024/01/05 03:13:24;;;;;;;2.15;0.95;;;;;;;6.25;49.70;100588.22;5042353;28;20090;-40
2024/01/05 03:15:50;;;;;;;1.63;0.80;;;;;;;6.28;49.83;100592.47;5045777;28;20049;-39
2024/01/05 03:18:15;;;;;;;5.25;0.93;;;;;;;6.30;50.02;100598.47;5040437;28;20056;-40
2024/01/05 03:20:41;;;;;;;0.68;0.60;;;;;;;6.34;50.08;100601.84;5030835;28;20504;-39
2024/01/05 03:23:06;;;;;;;3.22;1.40;;;;;;;6.35;50.31;100604.38;5045608;28;20479;-40
2024/01/05 03:25:33;;;;;;;2.00;0.90;;;;;;;6.37;50.00;100602.56;5045764;28;20036;-39
2024/01/05 03:27:58;;;;;;;1.33;0.75;;;;;;;6.39;50.47;100599.84;5042068;28;20025;-40
2024/01/05 03:30:24;;;;;;;2.08;0.93;;;;;;;6.39;50.09;100592.03;5043087;28;20040;-39
2024/01/05 03:32:49;;;;;;;1.38;0.80;;;;;;;6.40;50.27;100599.81;5041268;28;20041;-40
2024/01/05 03:35:14;;;;;;;1.42;0.50;;;;;;;6.43;50.50;100601.44;5041859;28;20037;-39
2024/01/05 03:37:40;;;;;;;1.90;0.93;;;;;;;6.41;50.02;100603.25;5043481;28;20060;-40
2024/01/05 03:40:06;;;;;;;4.32;1.10;;;;;;;6.40;50.23;100604.19;5041396;28;20151;-40
2024/01/05 03:42:31;;;;;;;1.42;0.63;;;;;;;6.35;50.12;100604.38;5047919;28;20380;-39
2024/01/05 03:44:56;;;;;;;2.00;0.77;;;;;;;6.36;50.57;100616.53;5045196;28;20035;-39
2024/01/05 03:47:22;;;;;;;61.63;22.48;;;;;;;6.39;50.43;100600.72;5046067;28;20076;-40
2024/01/05 03:49:47;;;;;;;15.65;7.38;;;;;;;6.39;50.60;100598.13;5048256;28;20088;-40
2024/01/05 03:52:13;;;;;;;32.03;4.30;;;;;;;6.44;50.30;100597.03;5038696;28;20087;-39
2024/01/05 03:54:38;;;;;;;2.63;1.23;;;;;;;6.39;50.43;100592.03;5042303;28;20033;-39
2024/01/05 03:57:04;;;;;;;1.23;0.70;;;;;;;6.37;50.02;100592.09;5042753;28;20037;-39
2024/01/05 03:59:29;;;;;;;1.38;0.70;;;;;;;6.37;50.05;100589.47;5047771;28;20422;-39
2024/01/05 04:01:55;;;;;;;1.42;0.90;;;;;;;6.35;49.72;100593.91;5044633;28;20037;-40
2024/01/05 04:04:20;;;;;;;1.67;0.90;;;;;;;6.40;50.41;100586.75;5042799;28;20495;-40
2024/01/05 04:06:46;;;;;;;5.97;1.20;;;;;;;6.43;50.30;100582.31;5044437;28;20127;-39
2024/01/05 04:09:11;;;;;;;2.92;1.17;;;;;;;6.35;49.82;100580.84;5043289;28;20380;-40
2024/01/05 04:11:37;;;;;;;3.38;1.20;;;;;;;6.39;50.60;100574.59;5040654;28;20098;-39
2024/01/05 04:14:04;;;;;;;2.10;1.02;;;;;;;6.42;50.29;100580.59;5043754;28;20106;-39
2024/01/05 04:16:29;;;;;;;1.27;0.65;;;;;;;6.45;50.07;100583.06;5040574;28;20499;-39
2024/01/05 04:18:54;;;;;;;3.17;1.20;;;;;;;6.45;50.27;100576.09;5044123;28;20053;-40
2024/01/05 04:21:20;;;;;;;1.60;0.80;;;;;;;6.42;49.21;100567.53;5044543;28;20033;-39
2024/01/05 04:23:45;;;;;;;1.10;0.70;;;;;;;6.42;50.27;100572.75;5043974;28;20479;-39
2024/01/05 04:26:10;;;;;;;4.30;0.98;;;;;;;6.46;50.21;100574.31;5045782;28;20059;-39
2024/01/05 04:28:36;;;;;;;1.25;0.50;;;;;;;6.48;49.89;100572.47;5045347;28;20083;-39
2024/01/05 04:31:01;;;;;;;2.10;0.85;;;;;;;6.48;49.94;100568.13;5046845;28;20050;-40
2024/01/05 04:33:27;;;;;;;6.47;1.05;;;;;;;6.47;50.03;100569.03;5043862;28;20087;-39
2024/01/05 04:35:52;;;;;;;1.65;0.95;;;;;;;6.46;49.49;100575.19;5045693;28;20048;-39
2024/01/05 04:38:17;;;;;;;3.08;1.00;;;;;;;6.45;50.32;100577.84;5044714;28;20036;-39
2024/01/05 04:40:43;;;;;;;1.55;0.73;;;;;;;6.46;50.39;100574.31;5047103;28;20083;-39
2024/01/05 04:43:08;;;;;;;1.42;0.90;;;;;;;6.46;50.08;100574.31;5041938;28;20029;-40
2024/01/05 04:45:36;;;;;;;1.90;1.05;;;;;;;6.52;50.42;100568.81;5029148;28;20025;-39
2024/01/05 04:48:03;;;;;;;1.80;1.00;;;;;;;6.48;49.99;100570.72;5046696;28;20031;-39
2024/01/05 04:50:28;;;;;;;1.23;0.60;;;;;;;6.46;50.00;100569.09;5041368;28;20029;-40
2024/01/05 04:52:53;;;;;;;1.27;0.75;;;;;;;6.47;49.92;100570.78;5045425;28;20040;-39
2024/01/05 04:55:19;;;;;;;1.95;0.90;;;;;;;6.48;50.19;100573.34;5039761;28;20036;-39
2024/01/05 04:57:44;;;;;;;2.42;0.73;;;;;;;6.49;50.22;100568.94;5046085;28;20033;-39
2024/01/05 05:00:10;;;;;;;1.52;0.82;;;;;;;6.48;49.92;100562.88;5042174;28;20122;-40
2024/01/05 05:02:35;;;;;;;1.23;0.60;;;;;;;6.48;49.85;100546.34;5039819;28;20041;-39
2024/01/05 05:05:01;;;;;;;1.55;0.98;;;;;;;6.47;50.05;100555.09;5045227;28;20033;-40
2024/01/05 05:07:26;;;;;;;2.65;1.30;;;;;;;6.47;50.14;100550.72;5045344;28;20033;-40
2024/01/05 05:09:52;;;;;;;2.35;1.25;;;;;;;6.49;49.86;100548.03;5043724;28;20063;-39
2024/01/05 05:12:17;;;;;;;2.85;1.00;;;;;;;6.49;49.83;100548.03;5043674;28;20047;-39
2024/01/05 05:14:43;;;;;;;1.23;0.77;;;;;;;6.51;49.63;100546.22;5042427;28;20490;-39
2024/01/05 05:17:08;;;;;;;3.42;1.30;;;;;;;6.50;49.71;100554.97;5043959;28;20029;-40
2024/01/05 05:19:34;;;;;;;2.15;1.30;;;;;;;6.48;50.33;100548.94;5043749;28;20029;-39
2024/01/05 05:21:59;;;;;;;2.17;1.17;;;;;;;6.47;49.99;100557.72;5041811;28;20426;-40
2024/01/05 05:24:25;;;;;;;4.15;1.02;;;;;;;6.45;50.06;100563.00;5034914;28;20119;-40
2024/01/05 05:26:50;;;;;;;2.88;1.27;;;;;;;6.44;50.04;100569.16;5041880;28;20047;-39
2024/01/05 05:29:15;;;;;;;1.75;0.90;;;;;;;6.43;49.81;100569.25;5037060;28;20126;-40
2024/01/05 05:31:41;;;;;;;1.98;0.95;;;;;;;6.43;50.24;100571.84;5041458;28;20488;-39
2024/01/05 05:34:06;;;;;;;2.53;1.27;;;;;;;6.46;50.60;100569.09;5043046;28;20048;-39
2024/01/05 05:36:31;;;;;;;2.47;0.93;;;;;;;6.47;50.17;100566.41;5045518;28;20028;-39
2024/01/05 05:38:57;;;;;;;1.98;0.90;;;;;;;6.44;50.39;100561.31;5045828;28;20021;-40
2024/01/05 05:41:22;;;;;;;1.25;1.00;;;;;;;6.44;50.33;100556.09;5039183;28;20033;-39
2024/01/05 05:43:47;;;;;;;1.98;1.20;;;;;;;6.46;49.55;100558.63;5044019;28;20134;-40
2024/01/05 05:46:13;;;;;;;2.03;0.82;;;;;;;6.45;50.12;100551.69;5038433;28;20033;-39
2024/01/05 05:48:38;;;;;;;2.13;1.10;;;;;;;6.46;49.84;100553.41;5043939;28;20487;-39
2024/01/05 05:51:04;;;;;;;3.40;1.10;;;;;;;6.36;50.38;100552.94;5044521;28;20041;-39
2024/01/05 05:53:30;;;;;;;1.75;1.00;;;;;;;6.42;50.09;100549.25;5039233;28;20033;-39
2024/01/05 05:55:55;;;;;;;3.20;1.83;;;;;;;6.42;50.35;100559.69;5042710;28;20041;-39
2024/01/05 05:58:21;;;;;;;4.70;1.00;;;;;;;6.45;50.48;100556.94;5043265;28;20033;-39
2024/01/05 06:00:47;;;;;;;2.58;1.00;;;;;;;6.45;50.58;100557.78;5042073;28;20033;-39
2024/01/05 06:03:13;;;;;;;1.40;0.90;;;;;;;6.39;50.54;100553.69;5043607;28;20043;-39
2024/01/05 06:05:38;;;;;;;4.38;1.77;;;;;;;6.43;50.18;100553.56;5044805;28;20033;-39
2024/01/05 06:08:04;;;;;;;3.20;1.30;;;;;;;6.43;50.01;100553.56;5039824;28;20060;-39
2024/01/05 06:10:29;;;;;;;1.30;1.00;;;;;;;6.39;50.28;100547.59;5043850;28;20400;-39
2024/01/05 06:12:55;;;;;;;4.88;2.05;;;;;;;6.33;50.04;100540.88;5042418;28;20043;-39
2024/01/05 06:15:20;;;;;;;3.40;1.02;;;;;;;6.35;50.46;100546.88;5039299;28;20028;-40
2024/01/05 06:17:46;;;;;;;2.28;1.20;;;;;;;6.33;50.32;100548.72;5044454;28;20110;-39
2024/01/05 06:20:11;;;;;;;1.58;1.20;;;;;;;6.32;50.18;100552.22;5042849;28;20037;-40
2024/01/05 06:22:37;;;;;;;2.25;1.35;;;;;;;6.38;50.50;100556.34;5042172;28;20029;-39
2024/01/05 06:25:02;;;;;;;2.67;1.35;;;;;;;6.42;50.33;100557.09;5041650;28;20021;-39
2024/01/05 06:27:28;;;;;;;3.95;1.58;;;;;;;6.32;50.62;100552.22;5045952;28;20063;-39
2024/01/05 06:29:53;;;;;;;6.10;1.88;;;;;;;6.31;50.84;100560.16;5042470;28;20033;-40
2024/01/05 06:32:19;;;;;;;3.03;1.50;;;;;;;6.31;50.41;100560.97;5037103;28;20669;-40
2024/01/05 06:34:44;;;;;;;7.93;1.60;;;;;;;6.32;50.35;100562.69;5044354;28;20037;-39
2024/01/05 06:37:09;;;;;;;1.35;1.00;;;;;;;6.37;50.26;100562.47;5042681;28;20036;-39
2024/01/05 06:39:35;;;;;;;4.63;1.42;;;;;;;6.39;50.29;100574.59;5044241;28;20036;-40
2024/01/05 06:42:00;;;;;;;11.68;3.13;;;;;;;6.39;50.95;100584.19;5048272;28;20708;-39
2024/01/05 06:44:25;;;;;;;4.63;2.40;;;;;;;6.41;51.15;100590.19;5043223;28;20036;-39
2024/01/05 06:46:52;;;;;;;2.60;1.25;;;;;;;6.38;50.45;100583.34;5046150;28;20035;-39
2024/01/05 06:49:18;;;;;;;7.28;2.25;;;;;;;6.30;51.36;100588.03;5045436;28;20035;-39
2024/01/05 06:51:43;;;;;;;2.65;1.15;;;;;;;6.37;50.84;100586.00;5048813;28;20025;-40
2024/01/05 06:54:09;;;;;;;3.30;1.38;;;;;;;6.42;50.62;100588.44;5048396;28;20117;-39
2024/01/05 06:56:34;;;;;;;3.40;1.73;;;;;;;6.38;50.94;100578.13;5048120;28;20404;-39
2024/01/05 06:59:01;;;;;;;3.05;1.65;;;;;;;6.38;51.30;100575.50;5052141;28;20041;-39
2024/01/05 07:01:27;;;;;;;6.20;1.92;;;;;;;6.37;50.40;100578.16;5041790;28;20025;-40
2024/01/05 07:03:52;;;;;;;2.97;1.33;;;;;;;6.36;50.77;100584.31;5047284;28;20039;-39
2024/01/05 07:06:18;;;;;;;3.53;1.63;;;;;;;6.42;50.96;100580.59;5044301;28;20457;-39
2024/01/05 07:08:43;;;;;;;4.43;2.28;;;;;;;6.36;51.33;100579.06;5044358;28;20036;-39
2024/01/05 07:11:10;;;;;;;5.03;1.70;;;;;;;6.40;51.13;100576.28;5048066;28;20025;-42
2024/01/05 07:13:35;;;;;;;13.35;6.90;;;;;;;6.28;50.70;100570.72;5042541;28;20091;-40
2024/01/05 07:16:01;;;;;;;7.65;3.67;;;;;;;6.31;51.53;100570.59;5023692;28;20067;-40
2024/01/05 07:18:26;;;;;;;3.28;1.88;;;;;;;6.30;51.16;100563.69;5040187;28;20029;-39
2024/01/05 07:20:52;;;;;;;7.72;1.80;;;;;;;6.30;51.25;100569.75;5042153;28;20129;-39
2024/01/05 07:23:17;;;;;;;3.97;1.60;;;;;;;6.28;51.29;100565.50;5045332;28;20136;-40
2024/01/05 07:25:42;;;;;;;3.55;1.65;;;;;;;6.20;51.52;100563.22;5043154;28;20020;-40
2024/01/05 07:28:08;;;;;;;2.90;1.50;;;;;;;6.22;52.31;100562.22;5045286;28;20056;-39
2024/01/05 07:30:33;;;;;;;5.00;1.75;;;;;;;6.29;51.68;100567.19;5041462;28;20076;-40
2024/01/05 07:32:59;;;;;;;4.72;2.20;;;;;;;6.32;51.88;100572.31;5045372;28;20025;-40
2024/01/05 07:35:24;;;;;;;3.85;1.63;;;;;;;6.30;51.61;100569.75;5047548;28;20104;-40
2024/01/05 07:37:49;;;;;;;8.75;1.83;;;;;;;6.27;52.19;100579.47;5048528;28;20069;-40
2024/01/05 07:40:15;;;;;;;5.70;2.05;;;;;;;6.25;52.03;100571.72;5046171;28;20114;-39
2024/01/05 07:42:40;;;;;;;5.47;1.60;;;;;;;6.29;52.13;100577.66;5046593;28;20601;-39
2024/01/05 07:45:06;;;;;;;7.45;3.08;;;;;;;6.28;52.05;100575.94;5051102;28;20071;-40
2024/01/05 07:47:32;;;;;;;3.53;1.33;;;;;;;6.32;52.29;100578.38;5033254;28;20025;-39
2024/01/05 07:49:57;;;;;;;7.32;2.53;;;;;;;6.37;51.84;100575.56;5039547;28;20518;-40
2024/01/05 07:52:22;;;;;;;5.85;2.40;;;;;;;6.38;51.82;100572.88;5048402;28;20027;-40
2024/01/05 07:54:48;;;;;;;5.80;2.22;;;;;;;6.43;51.83;100569.25;5047383;28;20116;-39
2024/01/05 07:57:14;;;;;;;7.38;2.10;;;;;;;6.45;51.96;100580.44;5047081;28;20154;-40
2024/01/05 07:59:39;;;;;;;5.93;2.25;;;;;;;6.23;51.74;100578.78;5033462;28;20033;-40
2024/01/05 08:02:05;;;;;;;7.75;2.25;;;;;;;6.30;52.17;100585.41;5043496;28;20483;-39
2024/01/05 08:04:30;;;;;;;5.95;1.83;;;;;;;6.36;51.93;100585.16;5045427;28;20208;-39
2024/01/05 08:06:55;;;;;;;9.15;2.50;;;;;;;6.37;51.67;100589.47;5041316;28;20041;-40
2024/01/05 08:09:21;;;;;;;4.22;1.77;;;;;;;6.38;52.40;100588.56;5046883;28;20039;-40
2024/01/05 08:11:46;;;;;;;2.30;1.42;;;;;;;6.30;52.62;100595.03;5040810;28;20399;-39
2024/01/05 08:14:12;;;;;;;5.00;2.08;;;;;;;6.31;52.44;100600.19;5044548;28;20040;-39
2024/01/05 08:16:37;;;;;;;6.15;1.77;;;;;;;6.31;52.33;100612.41;5043995;28;20159;-40
2024/01/05 08:19:02;;;;;;;7.43;2.40;;;;;;;6.32;52.32;100609.72;5027561;28;20063;-39
2024/01/05 08:21:28;;;;;;;7.85;2.28;;;;;;;6.38;52.08;100600.78;5044860;28;20037;-40
2024/01/05 08:23:54;;;;;;;7.45;3.40;;;;;;;6.35;52.07;100609.59;5033483;28;20037;-40
2024/01/05 08:26:19;;;;;;;6.65;2.55;;;;;;;6.38;51.75;100606.88;5044538;28;20028;-40
2024/01/05 08:28:45;;;;;;;5.60;2.17;;;;;;;6.33;51.98;100600.97;5046613;28;20041;-39
2024/01/05 08:31:10;;;;;;;4.63;2.05;;;;;;;6.17;52.02;100595.56;5037298;28;20029;-39
2024/01/05 08:33:36;;;;;;;6.13;2.22;;;;;;;6.23;52.14;100604.91;5041080;28;21018;-37
2024/01/05 08:36:01;;;;;;;7.05;2.38;;;;;;;6.25;52.18;100603.06;5047907;28;20044;-38
2024/01/05 08:38:27;;;;;;;10.00;2.42;;;;;;;6.18;52.23;100605.09;5044215;28;20039;-38
2024/01/05 08:40:52;;;;;;;5.10;2.47;;;;;;;6.17;52.39;100606.00;5028796;28;20047;-38
2024/01/05 08:43:19;;;;;;;4.63;1.77;;;;;;;6.21;52.36;100598.88;5032526;28;20041;-37
2024/01/05 08:45:46;;;;;;;7.28;2.78;;;;;;;6.32;52.19;100614.13;5043831;28;20074;-38
2024/01/05 08:48:11;;;;;;;5.57;2.45;;;;;;;6.16;52.50;100619.13;5045776;28;20029;-38
2024/01/05 08:50:37;;;;;;;6.40;2.38;;;;;;;6.05;52.21;100617.81;5044511;28;20037;-38
2024/01/05 08:53:03;;;;;;;5.32;2.20;;;;;;;6.08;52.84;100617.69;5048180;28;20040;-38
2024/01/05 08:55:29;;;;;;;5.53;2.50;;;;;;;6.08;52.78;100627.25;5043666;28;20028;-38
2024/01/05 08:57:54;;;;;;;4.22;2.38;;;;;;;6.14;52.83;100631.38;5045231;28;20430;-37
2024/01/05 09:00:20;;;;;;;5.07;2.53;;;;;;;6.17;53.09;100636.50;5045025;28;20046;-38
2024/01/05 09:02:45;;;;;;;7.07;2.65;;;;;;;6.23;52.52;100633.63;5039235;28;20044;-37
2024/01/05 09:05:11;;;;;;;4.45;2.20;;;;;;;6.14;52.91;100634.88;5041310;28;20040;-38
2024/01/05 09:07:36;;;;;;;4.18;2.13;;;;;;;6.16;52.62;100630.44;5042039;28;20102;-40
2024/01/05 09:10:02;;;;;;;7.80;2.63;;;;;;;6.20;52.53;100642.44;5044851;28;20087;-39
2024/01/05 09:12:27;;;;;;;6.70;1.95;;;;;;;6.23;52.39;100641.47;5040307;28;20033;-40
2024/01/05 09:14:53;;;;;;;7.32;2.83;;;;;;;6.27;52.56;100645.69;5041519;28;20028;-39
2024/01/05 09:17:19;;;;;;;6.45;2.35;;;;;;;6.25;52.93;100644.88;5038956;28;20051;-39
2024/01/05 09:19:45;;;;;;;5.00;2.90;;;;;;;6.29;52.96;100648.22;5043550;28;20108;-39
2024/01/05 09:22:11;;;;;;;7.80;2.08;;;;;;;6.24;52.87;100648.41;5041007;28;20029;-40
2024/01/05 09:24:36;;;;;;;14.75;4.68;;;;;;;6.13;52.86;100645.34;5042463;28;20037;-39
2024/01/05 09:27:02;;;;;;;4.72;2.45;;;;;;;6.13;52.84;100640.13;5045310;28;20082;-40
2024/01/05 09:29:30;;;;;;;4.00;2.03;;;;;;;6.17;53.01;100633.88;5044672;28;20488;-39
2024/01/05 09:31:56;;;;;;;7.20;2.50;;;;;;;6.12;52.99;100628.00;5042010;28;20067;-40
2024/01/05 09:34:21;;;;;;;5.50;2.55;;;;;;;6.13;52.61;100624.47;5043237;28;20586;-40
2024/01/05 09:36:47;;;;;;;5.55;2.72;;;;;;;6.05;53.12;100616.97;5044284;28;20051;-40
2024/01/05 09:39:12;;;;;;;3.45;1.95;;;;;;;6.01;53.64;100616.22;5047475;28;20041;-40
2024/01/05 09:41:40;;;;;;;5.32;2.70;;;;;;;6.12;53.35;100617.56;5045260;28;20031;-39
2024/01/05 09:44:05;;;;;;;8.88;4.70;;;;;;;6.09;53.17;100603.72;5040611;28;20040;-40
2024/01/05 09:46:32;;;;;;;7.25;3.00;;;;;;;6.13;53.23;100609.66;5040924;28;20029;-40
2024/01/05 09:48:58;;;;;;;11.52;3.85;;;;;;;6.08;53.60;100615.06;5047928;28;20044;-40
2024/01/05 09:51:28;;;;;;;9.10;3.50;;;;;;;6.08;53.64;100604.63;5047897;28;20025;-40
2024/01/05 09:53:54;;;;;;;7.93;3.00;;;;;;;6.04;53.85;100604.81;5046678;28;20070;-39
2024/01/05 09:56:21;;;;;;;5.97;3.10;;;;;;;6.05;53.83;100604.75;5049600;28;20029;-40
2024/01/05 09:58:48;;;;;;;7.25;3.35;;;;;;;6.09;53.78;100608.06;5040970;28;20044;-40
2024/01/05 10:01:34;;;;;;;6.97;2.80;;;;;;;6.23;54.08;100603.13;5042761;28;20116;-39
2024/01/05 10:04:01;;;;;;;10.60;3.63;;;;;;;6.15;54.20;100602.59;5025209;28;20159;-39
2024/01/05 10:06:28;;;;;;;5.78;2.47;;;;;;;6.12;54.36;100600.09;5035103;28;20091;-40
2024/01/05 10:08:58;;;;;;;8.30;3.22;;;;;;;6.20;54.31;100600.63;5047700;28;20037;-39
2024/01/05 10:11:33;;;;;;;10.20;3.70;;;;;;;6.07;54.62;100602.06;5039185;28;20032;-39
2024/01/05 10:14:05;;;;;;;9.07;4.45;;;;;;;6.19;54.25;100592.88;5007305;28;21212;-39
2024/01/05 10:16:37;;;;;;;5.88;4.03;;;;;;;6.08;55.05;100586.34;5040079;28;20041;-40
2024/01/05 10:19:11;;;;;;;9.48;3.45;;;;;;;6.22;54.59;100582.28;5046440;28;20037;-40
2024/01/05 10:21:37;;;;;;;8.57;3.20;;;;;;;6.21;54.69;100591.03;5042014;28;20128;-39
2024/01/05 10:24:03;;;;;;;7.07;3.58;;;;;;;6.21;55.01;100591.88;5044359;28;20035;-39
2024/01/05 10:26:32;;;;;;;6.78;3.55;;;;;;;6.24;54.79;100583.09;5040833;28;20029;-40
2024/01/05 10:29:11;;;;;;;5.45;3.00;;;;;;;6.30;54.58;100580.19;5042845;28;20118;-40
2024/01/05 10:31:37;;;;;;;7.35;3.20;;;;;;;6.22;54.65;100570.06;5040379;28;20681;-39
2024/01/05 10:34:02;;;;;;;10.15;3.42;;;;;;;6.20;54.58;100566.66;5047126;28;20690;-41
2024/01/05 10:36:28;;;;;;;6.25;2.97;;;;;;;6.22;54.15;100566.63;5043691;28;20055;-40
2024/01/05 10:38:53;;;;;;;9.55;3.80;;;;;;;6.24;54.62;100562.19;5028675;28;20095;-40
2024/01/05 10:41:23;;;;;;;6.07;3.47;;;;;;;6.24;54.48;100554.34;5042981;28;20129;-39
2024/01/05 10:43:49;;;;;;;7.90;3.78;;;;;;;6.22;54.60;100564.00;5040017;28;20461;-40
2024/01/05 10:46:17;;;;;;;8.63;4.07;;;;;;;6.18;54.88;100563.28;5044486;28;20025;-40
2024/01/05 10:48:43;;;;;;;10.50;3.15;;;;;;;6.20;54.74;100568.44;5043970;28;20029;-40
2024/01/05 10:51:11;;;;;;;7.97;2.70;;;;;;;6.29;54.79;100556.75;5043116;28;20037;-40
2024/01/05 10:53:37;;;;;;;7.53;3.17;;;;;;;6.19;54.89;100559.75;5042197;28;20041;-39
2024/01/05 10:56:03;;;;;;;9.52;3.22;;;;;;;6.16;55.25;100553.78;5042427;28;20655;-40
2024/01/05 10:58:29;;;;;;;6.10;3.00;;;;;;;6.15;54.95;100546.88;5046422;28;20507;-40
2024/01/05 11:00:58;;;;;;;6.03;3.55;;;;;;;6.13;55.11;100539.13;5040618;28;20045;-40
2024/01/05 11:03:24;;;;;;;8.02;3.38;;;;;;;6.18;54.32;100539.78;5041497;28;20028;-40
2024/01/05 11:05:51;;;;;;;6.97;2.97;;;;;;;6.17;54.81;100537.22;5041300;28;20024;-39
2024/01/05 11:08:36;;;;;;;28.83;13.18;;;;;;;6.10;54.84;100534.88;5044554;28;20033;-39
2024/01/05 11:11:11;;;;;;;8.52;3.63;;;;;;;6.18;54.88;100533.69;5044550;28;20050;-40
2024/01/05 11:13:55;;;;;;;6.55;2.65;;;;;;;6.15;54.77;100533.81;5040700;28;20035;-39
2024/01/05 11:16:59;;;;;;;5.35;2.42;;;;;;;6.14;54.82;100521.66;5046803;28;20395;-39
2024/01/05 11:20:04;;;;;;;4.45;2.47;;;;;;;6.10;54.99;100520.94;5039706;28;20032;-40
2024/01/05 11:22:35;;;;;;;5.90;2.05;;;;;;;5.97;54.43;100520.59;5044955;28;20491;-40
2024/01/05 11:25:02;;;;;;;5.83;2.87;;;;;;;5.95;54.64;100514.59;5043648;28;20396;-40
2024/01/05 11:27:29;;;;;;;4.75;1.70;;;;;;;5.89;54.66;100504.41;5040736;28;20383;-39